Address 0x23034ca985a6d46f41c94bd7498e4d4d4a72816b 1

 
 
Txn Hash Method
Block
From
To
Value [Txn Fee]
0x1476238d4573861309b855fcc375d8c4ddde999e6966e8a8fc5d0ba682b0dcd6Transfer107561002021-09-09 6:00:1218 days 11 hrs ago0x23034ca985a6d46f41c94bd7498e4d4d4a72816bOUT0x4e13318d066b7d9d911ad97bc3dce73f955cb9a90.173109509831587 BNB0.000105
0x65fe56e502328ed6ae2858b29d77c06fb05d1045ac85bbbb12a3e5476ec5bcb3Swap Exact Token...107560862021-09-09 5:59:3018 days 11 hrs ago0x23034ca985a6d46f41c94bd7498e4d4d4a72816bOUT PancakeSwap: Router v20 BNB0.00083874
0xa1607b497ee7e713005ad73f5f8828cb06177e2fc51e3c84da7f75dc650cc420Approve107560792021-09-09 5:59:0918 days 11 hrs ago0x23034ca985a6d46f41c94bd7498e4d4d4a72816bOUT 0xb8af2ba973f3551705f5170cee1156e0616c3f570 BNB0.00022244
0x1dc9eb4cfd7163314029acb740925f5e9e18c852a7e0920c2911c5f2f1b8c87aSwap Exact ETH F...106564612021-09-05 18:00:2221 days 23 hrs ago0x23034ca985a6d46f41c94bd7498e4d4d4a72816bOUT PancakeSwap: Router v20.08 BNB0.000736035
0x9ae3c89a041004576923aef694756b793f97434a62d872f507b22d541ce7c074Upgrade Rig106562582021-09-05 17:50:1322 days 5 mins ago0x23034ca985a6d46f41c94bd7498e4d4d4a72816bOUT 0x3778e7d8365781def978a6ddd658409ea299c1e90 BNB0.0008945974
0xbf47325226179b978f7c4176988dce5166b0de928d5f06e71ad6f6c4179d8621Upgrade Rig104286792021-08-28 18:15:3629 days 23 hrs ago0x23034ca985a6d46f41c94bd7498e4d4d4a72816bOUT 0x3778e7d8365781def978a6ddd658409ea299c1e90 BNB0.0008945974
0x0666de39216446b8bbb38a3bef08832ba7bb822e1f9087329c3c72f1e617402aUpgrade Rig104286442021-08-28 18:13:5129 days 23 hrs ago0x23034ca985a6d46f41c94bd7498e4d4d4a72816bOUT 0x3778e7d8365781def978a6ddd658409ea299c1e90 BNB0.0008947186
0xf87a6e6ee0016d973ac8f842727d506cb760b52848688f7d59b390234a911847Upgrade Rig104286422021-08-28 18:13:4529 days 23 hrs ago0x23034ca985a6d46f41c94bd7498e4d4d4a72816bOUT 0x3778e7d8365781def978a6ddd658409ea299c1e90 BNB0.0008945974
0x4e0f207381133a15886a860130b34cda16a075158c398f11c3e169479d4d21c8Upgrade Rig104286342021-08-28 18:13:2129 days 23 hrs ago0x23034ca985a6d46f41c94bd7498e4d4d4a72816bOUT 0x3778e7d8365781def978a6ddd658409ea299c1e90 BNB0.0008947186
0xfcaf3d330eac6d4689dde64654ed0efb63a777e7e8d15395656d2bd675a297bcUpgrade Rig104286322021-08-28 18:13:1529 days 23 hrs ago0x23034ca985a6d46f41c94bd7498e4d4d4a72816bOUT 0x3778e7d8365781def978a6ddd658409ea299c1e90 BNB0.0008947186
0xe56087fdbe0ccfccd8ef1e7b25ed1405882a842a6cb8e5257185badf58445795Upgrade Rig104286272021-08-28 18:13:0029 days 23 hrs ago0x23034ca985a6d46f41c94bd7498e4d4d4a72816bOUT 0x3778e7d8365781def978a6ddd658409ea299c1e90 BNB0.0008947186
0x0bb8c2665558e2a97c223fb2ed49130144cff098641f3272b9fbda23d1a3bd4bUpgrade Rig104286222021-08-28 18:12:4529 days 23 hrs ago0x23034ca985a6d46f41c94bd7498e4d4d4a72816bOUT 0x3778e7d8365781def978a6ddd658409ea299c1e90 BNB0.0008947186
0xd2d8b87cc55e171f32cc3ab02e3abf50b5e823f59cc093ba32bb0c3170497ec1Upgrade Rig104286072021-08-28 18:12:0029 days 23 hrs ago0x23034ca985a6d46f41c94bd7498e4d4d4a72816bOUT 0x3778e7d8365781def978a6ddd658409ea299c1e90 BNB0.0008937086
0x2a0ff680a2b70d2f4c267869e0fb49068c6c63eac98ab5664fae49e4fbdaff8fUpgrade Rig104285872021-08-28 18:11:0029 days 23 hrs ago0x23034ca985a6d46f41c94bd7498e4d4d4a72816bOUT 0x3778e7d8365781def978a6ddd658409ea299c1e90 BNB0.0008932036
0xa14292fff9e2db4c6fb55ffa0b4f9e91220a58915377f4039c608123a6f3f6ddUpgrade Rig104285812021-08-28 18:10:4229 days 23 hrs ago0x23034ca985a6d46f41c94bd7498e4d4d4a72816bOUT 0x3778e7d8365781def978a6ddd658409ea299c1e90 BNB0.0008932036
0xa7f72c0303384e40f8c208f37c48dd2ffb10ad24be86622f97101ed685fc00c4Upgrade Rig104285752021-08-28 18:10:2429 days 23 hrs ago0x23034ca985a6d46f41c94bd7498e4d4d4a72816bOUT 0x3778e7d8365781def978a6ddd658409ea299c1e90 BNB0.0008945974
0xee91a8ea2d657e4acd102d71c479ac546e898b8a8d7f530f28c97ff4e199fb2bUpgrade Rig104285682021-08-28 18:10:0329 days 23 hrs ago0x23034ca985a6d46f41c94bd7498e4d4d4a72816bOUT 0x3778e7d8365781def978a6ddd658409ea299c1e90 BNB0.0008947186
0xd96170050a86cda93c50b4fb9f8dc82e5d7c3eb3a83089be778050deab3f304fUpgrade Rig104285632021-08-28 18:09:4829 days 23 hrs ago0x23034ca985a6d46f41c94bd7498e4d4d4a72816bOUT 0x3778e7d8365781def978a6ddd658409ea299c1e90 BNB0.0008945974
0xc228456a669a37a6fd58c70fd94b064e97a84c66f723062cda319e2d11d62019Release ICO104285592021-08-28 18:09:3629 days 23 hrs ago0x23034ca985a6d46f41c94bd7498e4d4d4a72816bOUT 0x3778e7d8365781def978a6ddd658409ea299c1e90 BNB0.0008141509
0x4fd04d80cafc6492db93d86598966236a887a22a60d0be081e1f75d2dd66e397Upgrade Rig104285552021-08-28 18:09:2429 days 23 hrs ago0x23034ca985a6d46f41c94bd7498e4d4d4a72816bOUT 0x3778e7d8365781def978a6ddd658409ea299c1e90 BNB0.0008947186
0x6a14c3b65b5256bded9234a97abeeb3cf0ec4bc375cf816314e4ecaa2d03a061Upgrade Rig104285532021-08-28 18:09:1829 days 23 hrs ago0x23034ca985a6d46f41c94bd7498e4d4d4a72816bOUT 0x3778e7d8365781def978a6ddd658409ea299c1e90 BNB0.0008945974
0x114f1d4fee88fecec11b1f5b72695bca1b882df90679d71b6fe2c2b61e699f56Upgrade Rig104285462021-08-28 18:08:5729 days 23 hrs ago0x23034ca985a6d46f41c94bd7498e4d4d4a72816bOUT 0x3778e7d8365781def978a6ddd658409ea299c1e90 BNB0.0008945974
0x3d6b905b6db57fd64a6836dcf9c9ca6795dca07c092820e6df65eeef1e37ec58Upgrade Rig104285372021-08-28 18:08:2929 days 23 hrs ago0x23034ca985a6d46f41c94bd7498e4d4d4a72816bOUT 0x3778e7d8365781def978a6ddd658409ea299c1e90 BNB0.0008947186
0x9038c690d9c486b560efcdf14626a295de19fd497da7c26e7c98b2ff57292eb7Upgrade Rig104285352021-08-28 18:08:2329 days 23 hrs ago0x23034ca985a6d46f41c94bd7498e4d4d4a72816bOUT 0x3778e7d8365781def978a6ddd658409ea299c1e90 BNB0.0008932036
0x51333be1532d6770c6a8e4505de1fbad541f7a6667398b8d7280812f832a3f24Upgrade Rig104285292021-08-28 18:08:0529 days 23 hrs ago0x23034ca985a6d46f41c94bd7498e4d4d4a72816bOUT 0x3778e7d8365781def978a6ddd658409ea299c1e90 BNB0.0008945974
[ Download CSV Export 
Latest 7 internal transactions
Parent Txn Hash Block From To Value
0x65fe56e502328ed6ae2858b29d77c06fb05d1045ac85bbbb12a3e5476ec5bcb3107560862021-09-09 5:59:3018 days 11 hrs ago PancakeSwap: Router v20x23034ca985a6d46f41c94bd7498e4d4d4a72816b0.152275952059761254 BNB
0x2ed02691c90aefd14bebe6ee02964f375dd12587ad6f0840a605c385996c362b103877232021-08-27 6:53:5431 days 11 hrs ago PancakeSwap: Router v20x23034ca985a6d46f41c94bd7498e4d4d4a72816b0.287652236573762971 BNB
0x505ee6340ee43ae7a1d557d49325d5a15431074949029f01d3bea16bf56213d0103699252021-08-26 16:03:5832 days 1 hr ago PancakeSwap: Router v20x23034ca985a6d46f41c94bd7498e4d4d4a72816b0.256654330489719455 BNB
0xb21b15aeebe1d7382fd3a1411909f2da21b0c3272c630197a0c0886ecdbc5cd1103659512021-08-26 12:44:0932 days 5 hrs ago PancakeSwap: Router v20x23034ca985a6d46f41c94bd7498e4d4d4a72816b0.378947746554112599 BNB
0x7bac3226f1021c0f23e51beef3916cacc0375ae3e6b2673fb750c21c49ae489e103575802021-08-26 5:45:3432 days 12 hrs ago PancakeSwap: Router v20x23034ca985a6d46f41c94bd7498e4d4d4a72816b0.258494538411575051 BNB
0x0fb65e2ca69e9c84df76150c4e6e9f8c4ba3e4b925f7415f0c5964b117e7ca70103293292021-08-25 6:07:1133 days 11 hrs ago PancakeSwap: Router v20x23034ca985a6d46f41c94bd7498e4d4d4a72816b0.254747658842656428 BNB
0x2c11179201ed230a6b6725ed1c50703f53aa652f586cc8a5209530764e21bd01103163892021-08-24 19:17:3733 days 22 hrs ago PancakeSwap: Router v20x23034ca985a6d46f41c94bd7498e4d4d4a72816b1 wei
[ Download CSV Export 
Loading

Contract Name:
0 BNB

Compiler Version
0

Optimization Enabled:
0 BNB

Other Settings:
-NA-
Block Transaction Gas Used Reward
Age Block Fee Address BC Fee Address Voting Power Jailed Incoming
Block Uncle Number Difficulty Gas Used Reward
Loading
Loading
Make sure to use the "Vote Down" button for any spammy posts, and the "Vote Up" for interesting conversations.